• Join FlightAware (Why Join?)
  • Login
  • US Flag 
09:29PM EDT


 

Airport Tracker/Info


-or-


 

Live Flight TrackerFlight Track Log ✈ SWA2697 ✈ 17-Apr-2013 ✈ KLAS - KONT

Flight Track Log - Related Links

Times and Time Zones

All times are in EDT time to prevent confusion due to time zone crossing. See the SWA2697 flight status page for this flight to view local times or setup timezone preferences in your user account.

Time Position Orientation Groundspeed Altitude Reporting Facility
EDT Latitude Longitude Course Direction KTS MPH feet Rate Location/Type
11:42AM 36.1097 -115.2342 276° West 227 261 7,000  Level Los Angeles Center
11:43AM 36.0792 -115.3036 241° Southwest 258 297 9,900 2,520 Climbing Los Angeles Center
11:44AM 35.9897 -115.3042 180° South 312 359 12,500 3,420 Climbing Los Angeles Center
11:45AM 35.8683 -115.2994 178° South 348 400 17,000 3,720 Climbing Los Angeles Center
11:46AM 35.7597 -115.2964 179° South 376 433 20,300 2,880 Climbing Los Angeles Center
11:47AM 35.6564 -115.3244 192° South 379 436 23,000 1,740 Climbing Los Angeles Center
11:48AM 35.5875 -115.4169 228° Southwest 364 419 24,000 480 Climbing Los Angeles Center
11:49AM 35.5197 -115.5094 228° Southwest 364 419 24,000 -60 Level Los Angeles Center
11:50AM 35.4492 -115.6025 227° Southwest 363 418 23,900 -60 Descending Los Angeles Center
11:51AM 35.3814 -115.6922 227° Southwest 359 413 23,900  Level Los Angeles Center
11:52AM 35.3083 -115.7928 228° Southwest 389 448 24,000  Climbing Los Angeles Center
11:53AM 35.2289 -115.8964 227° Southwest 413 475 23,900 -60 Descending Los Angeles Center
11:54AM 35.1356 -116.0200 227° Southwest 413 475 23,900  Level Los Angeles Center
11:55AM 35.0558 -116.1250 227° Southwest 418 481 24,000  Climbing Los Angeles Center
11:56AM 34.9756 -116.2269 226° Southwest 418 481 23,900 -60 Descending Los Angeles Center
11:57AM 34.9006 -116.3281 228° Southwest 408 470 23,900  Level Los Angeles Center
11:58AM 34.8222 -116.4294 227° Southwest 410 472 23,900  Level Los Angeles Center
11:59AM 34.7425 -116.5311 226° Southwest 413 475 23,900 -600 Level Los Angeles Center
12:00PM 34.6450 -116.6489 225° Southwest 411 473 22,700 -1,860 Descending Los Angeles Center
12:01PM 34.5681 -116.7428 225° Southwest 396 456 20,100 -2,460 Descending Los Angeles Center
12:02PM 34.4939 -116.8328 225° Southwest 379 436 17,700 -2,400 Descending Los Angeles Center
12:03PM 34.4217 -116.9228 226° Southwest 373 429 15,200 -2,400 Descending Los Angeles Center
12:04PM 34.3469 -117.0114 224° Southwest 374 430 12,800 -1,500 Descending Los Angeles Center
12:06PM 34.2792 -117.0936 225° Southwest 351 404 12,100 -1,380 Descending Los Angeles Center
12:07PM 34.2069 -117.1800 225° Southwest 320 368 10,000 -1,800 Descending Los Angeles Center
12:08PM 34.1500 -117.2533 227° Southwest 305 351 8,400 -1,680 Descending Los Angeles Center
12:08PM 34.1167 -117.3000 229° Southwest 302 348 7,400 -1,680 Descending Southern California TRACON
12:09PM 34.0667 -117.3667 228° Southwest 246 283 5,900 -1,380 Descending Southern California TRACON
12:10PM 34.0500 -117.4167 248° West 194 223 4,800 -1,500 Descending Southern California TRACON
12:11PM 34.0500 -117.4833 270° West 178 205 3,100 -1,560 Descending Southern California TRACON
12:12PM 34.0500 -117.5333 270° West 169 194 1,800 -1,080 Descending Southern California TRACON
12:13PM 34.0667 -117.5833 292° West 247 284 1,000 -840 Descending Southern California TRACON
12:15PM 34.0500 -117.6000 270° West  Level FlightAware Approximate
12:22PM 34.0560 -117.6012 270° West  Level Estimated
12:23PM 34.0500 -117.6000 270° West  Level FlightAware Approximate
12:24PM 34.0560 -117.6012 270° West  Level Estimated